createdAt,value
2023-05-10T00:02:01.907Z,11.97
2023-05-10T00:04:28.749Z,11.94
2023-05-10T00:06:55.872Z,11.81
2023-05-10T00:09:22.471Z,11.87
2023-05-10T00:11:49.098Z,11.85
2023-05-10T00:14:15.780Z,11.78
2023-05-10T00:16:42.532Z,11.79
2023-05-10T00:19:09.228Z,11.77
2023-05-10T00:21:35.893Z,11.75
2023-05-10T00:24:02.539Z,11.76
2023-05-10T00:26:29.227Z,11.75
2023-05-10T00:28:55.951Z,11.74
2023-05-10T00:31:22.562Z,11.76
2023-05-10T00:33:49.217Z,11.73
2023-05-10T00:36:15.898Z,11.72
2023-05-10T00:38:42.538Z,11.69
2023-05-10T00:41:09.483Z,11.72
2023-05-10T00:43:36.117Z,11.75
2023-05-10T00:46:02.668Z,11.77
2023-05-10T00:48:30.484Z,11.81
2023-05-10T00:50:57.245Z,11.77
2023-05-10T00:53:25.541Z,11.78
2023-05-10T00:55:52.306Z,11.80
2023-05-10T00:58:18.951Z,11.76
2023-05-10T01:00:47.526Z,11.76
2023-05-10T01:03:14.213Z,11.78
2023-05-10T01:05:40.961Z,11.77
2023-05-10T01:08:09.669Z,11.79
2023-05-10T01:10:36.427Z,11.75
2023-05-10T01:13:04.176Z,11.74
2023-05-10T01:15:32.099Z,11.73
2023-05-10T01:17:59.174Z,11.74
2023-05-10T01:20:26.334Z,11.73
2023-05-10T01:23:12.653Z,11.66
2023-05-10T01:25:52.416Z,11.64
2023-05-10T01:28:41.646Z,11.61
2023-05-10T01:31:23.527Z,11.61
2023-05-10T01:34:03.662Z,11.52
2023-05-10T01:36:44.826Z,11.60
2023-05-10T01:39:14.359Z,11.57
2023-05-10T01:41:50.607Z,11.56
2023-05-10T01:44:41.314Z,11.63
2023-05-10T01:47:21.372Z,11.58
2023-05-10T01:49:52.930Z,11.62
2023-05-10T01:52:27.225Z,11.57
2023-05-10T01:55:03.388Z,11.63
2023-05-10T01:57:35.404Z,11.59
2023-05-10T02:00:06.779Z,11.59
2023-05-10T02:02:38.779Z,11.58
2023-05-10T02:05:07.254Z,11.61
2023-05-10T02:07:36.469Z,11.56
2023-05-10T02:10:05.345Z,11.56
2023-05-10T02:12:36.504Z,11.55
2023-05-10T02:15:06.613Z,11.59
2023-05-10T02:17:34.095Z,11.56
2023-05-10T02:20:04.880Z,11.58
2023-05-10T02:22:32.955Z,11.59
2023-05-10T02:25:01.433Z,11.52
2023-05-10T02:27:30.088Z,11.55
2023-05-10T02:29:58.818Z,11.52
2023-05-10T02:32:28.013Z,11.51
2023-05-10T02:34:56.552Z,11.55
2023-05-10T02:37:23.814Z,11.50
2023-05-10T02:39:51.724Z,11.49
2023-05-10T02:42:21.333Z,11.47
2023-05-10T02:44:50.587Z,11.47
2023-05-10T02:47:17.780Z,11.50
2023-05-10T02:49:44.502Z,11.47
2023-05-10T02:52:17.403Z,11.43
2023-05-10T02:54:47.159Z,11.39
2023-05-10T02:57:20.276Z,11.52
2023-05-10T02:59:47.118Z,11.59
2023-05-10T03:02:14.259Z,11.56
2023-05-10T03:04:40.930Z,11.45
2023-05-10T03:07:08.756Z,11.40
2023-05-10T03:09:35.493Z,11.36
2023-05-10T03:12:09.333Z,11.30
2023-05-10T03:14:57.926Z,11.32
2023-05-10T03:17:41.171Z,11.30
2023-05-10T03:20:12.694Z,11.30
2023-05-10T03:22:44.127Z,11.24
2023-05-10T03:25:12.731Z,11.24
2023-05-10T03:27:42.554Z,11.51
2023-05-10T03:30:11.689Z,11.53
2023-05-10T03:32:38.628Z,11.46
2023-05-10T03:35:14.156Z,11.30
2023-05-10T03:37:40.897Z,11.26
2023-05-10T03:40:08.173Z,11.26
2023-05-10T03:42:34.945Z,11.20
2023-05-10T03:45:01.552Z,11.19
2023-05-10T03:47:28.151Z,11.14
2023-05-10T03:49:54.769Z,11.19
2023-05-10T03:52:21.369Z,11.13
2023-05-10T03:54:47.985Z,11.12
2023-05-10T03:57:14.579Z,11.10
2023-05-10T03:59:41.227Z,11.04
2023-05-10T04:02:07.851Z,11.08
2023-05-10T04:04:34.806Z,11.11
2023-05-10T04:07:01.438Z,11.12
2023-05-10T04:09:28.144Z,11.13
2023-05-10T04:11:54.832Z,11.18
2023-05-10T04:14:21.667Z,11.17
2023-05-10T04:16:48.475Z,11.17
2023-05-10T04:19:15.124Z,11.14
2023-05-10T04:21:41.834Z,11.17
2023-05-10T04:24:08.577Z,11.23
2023-05-10T04:26:35.342Z,11.23
2023-05-10T04:29:02.118Z,11.17
2023-05-10T04:31:29.014Z,11.19
2023-05-10T04:33:55.872Z,11.23
2023-05-10T04:36:22.530Z,11.30
2023-05-10T04:38:49.221Z,11.26
2023-05-10T04:41:15.904Z,11.27
2023-05-10T04:43:42.499Z,11.21
2023-05-10T04:46:09.172Z,11.21
2023-05-10T04:48:35.889Z,11.31
2023-05-10T04:51:02.555Z,11.37
2023-05-10T04:53:29.193Z,11.32
2023-05-10T04:55:55.835Z,11.33
2023-05-10T04:58:22.487Z,11.31
2023-05-10T05:00:49.086Z,11.26
2023-05-10T05:03:16.034Z,11.30
2023-05-10T05:05:42.751Z,11.27
2023-05-10T05:08:09.541Z,11.27
2023-05-10T05:10:36.313Z,11.28
2023-05-10T05:13:02.944Z,11.27
2023-05-10T05:15:29.677Z,11.31
2023-05-10T05:17:56.409Z,11.32
2023-05-10T05:20:23.288Z,11.33
2023-05-10T05:22:50.091Z,11.36
2023-05-10T05:25:16.977Z,11.41
2023-05-10T05:27:43.601Z,11.41
2023-05-10T05:30:10.633Z,11.41
2023-05-10T05:32:37.287Z,11.40
2023-05-10T05:35:03.953Z,11.41
2023-05-10T05:37:30.637Z,11.38
2023-05-10T05:39:57.295Z,11.41
2023-05-10T05:42:23.958Z,11.42
2023-05-10T05:44:50.682Z,11.47
2023-05-10T05:47:17.462Z,11.52
2023-05-10T05:49:46.850Z,11.48
2023-05-10T05:52:13.574Z,11.43
2023-05-10T05:54:40.538Z,11.42
2023-05-10T05:57:07.142Z,11.51
2023-05-10T05:59:34.049Z,11.59
2023-05-10T06:02:01.739Z,11.51
2023-05-10T06:04:28.756Z,11.51
2023-05-10T06:06:55.431Z,11.48
2023-05-10T06:09:22.075Z,11.57
2023-05-10T06:11:48.676Z,11.43
2023-05-10T06:14:15.791Z,11.31
2023-05-10T06:16:42.695Z,11.34
2023-05-10T06:19:09.329Z,11.30
2023-05-10T06:21:35.933Z,11.37
2023-05-10T06:24:03.695Z,11.42
2023-05-10T06:26:30.290Z,11.50
2023-05-10T06:28:56.890Z,11.49
2023-05-10T06:31:23.573Z,11.58
2023-05-10T06:33:50.220Z,11.60
2023-05-10T06:36:16.989Z,11.78
2023-05-10T06:38:43.688Z,11.79
2023-05-10T06:41:10.282Z,11.74
2023-05-10T06:43:38.054Z,11.66
2023-05-10T06:46:04.742Z,11.60
2023-05-10T06:48:31.332Z,11.48
2023-05-10T06:50:57.939Z,11.63
2023-05-10T06:53:24.581Z,11.49
2023-05-10T06:55:51.309Z,11.50
2023-05-10T06:58:17.926Z,11.43
2023-05-10T07:00:46.403Z,11.56
2023-05-10T07:03:13.277Z,11.66
2023-05-10T07:05:39.970Z,11.83
2023-05-10T07:08:06.622Z,11.95
2023-05-10T07:10:33.998Z,11.82
2023-05-10T07:13:01.545Z,12.02
2023-05-10T07:15:28.510Z,12.14
2023-05-10T07:17:55.346Z,12.10
2023-05-10T07:20:21.991Z,12.03
2023-05-10T07:22:48.620Z,11.98
2023-05-10T07:25:15.469Z,11.95
2023-05-10T07:27:42.301Z,11.98
2023-05-10T07:30:09.573Z,12.03
2023-05-10T07:32:36.251Z,12.07
2023-05-10T07:35:03.253Z,12.17
2023-05-10T07:37:30.007Z,12.40
2023-05-10T07:39:57.180Z,12.92
2023-05-10T07:42:23.980Z,12.91
2023-05-10T07:44:50.645Z,12.67
2023-05-10T07:47:17.811Z,12.62
2023-05-10T07:49:45.852Z,12.48
2023-05-10T07:52:12.851Z,12.40
2023-05-10T07:54:39.401Z,12.32
2023-05-10T07:57:06.061Z,12.20
2023-05-10T07:59:33.309Z,12.03
2023-05-10T08:02:00.001Z,12.03
2023-05-10T08:04:28.298Z,12.17
2023-05-10T08:06:57.031Z,12.08
2023-05-10T08:09:25.115Z,12.20
2023-05-10T08:11:52.066Z,12.27
2023-05-10T08:14:19.162Z,12.21
2023-05-10T08:16:45.780Z,12.12
2023-05-10T08:19:12.480Z,12.19
2023-05-10T08:21:39.307Z,12.19
2023-05-10T08:24:06.182Z,12.32
2023-05-10T08:26:36.605Z,12.38
2023-05-10T08:29:13.626Z,12.36
2023-05-10T08:31:44.246Z,12.34
2023-05-10T08:34:10.872Z,12.38
2023-05-10T08:36:40.165Z,12.50
2023-05-10T08:39:13.502Z,12.59
2023-05-10T08:41:52.478Z,13.14
2023-05-10T08:44:20.286Z,12.84
2023-05-10T08:46:55.468Z,12.77
2023-05-10T08:49:23.483Z,13.44
2023-05-10T08:51:53.345Z,14.23
2023-05-10T08:54:21.047Z,14.35
2023-05-10T08:56:49.743Z,14.30
2023-05-10T08:59:16.954Z,14.22
2023-05-10T09:01:45.770Z,13.88
2023-05-10T09:04:13.176Z,13.74
2023-05-10T09:06:40.238Z,13.40
2023-05-10T09:09:07.324Z,13.12
2023-05-10T09:11:34.388Z,13.37
2023-05-10T09:14:01.085Z,13.47
2023-05-10T09:16:27.826Z,13.49
2023-05-10T09:18:54.597Z,13.38
2023-05-10T09:21:21.626Z,13.46
2023-05-10T09:23:51.230Z,13.96
2023-05-10T09:26:18.471Z,13.98
2023-05-10T09:28:56.545Z,14.19
2023-05-10T09:31:24.778Z,14.54
2023-05-10T09:33:53.693Z,14.76
2023-05-10T09:36:20.467Z,15.36
2023-05-10T09:38:52.859Z,14.99
2023-05-10T09:41:22.109Z,15.52
2023-05-10T09:43:49.344Z,15.11
2023-05-10T09:46:16.919Z,14.90
2023-05-10T09:48:46.232Z,15.05
2023-05-10T09:51:25.857Z,15.05
2023-05-10T09:54:12.626Z,15.66
2023-05-10T09:56:41.374Z,15.63
2023-05-10T09:59:11.564Z,15.06
2023-05-10T10:01:39.061Z,15.05
2023-05-10T10:04:07.291Z,15.60
2023-05-10T10:06:41.163Z,15.52
2023-05-10T10:09:09.002Z,15.38
2023-05-10T10:11:37.213Z,14.97
2023-05-10T10:14:04.128Z,14.81
2023-05-10T10:16:32.049Z,15.16
2023-05-10T10:18:59.522Z,15.58
2023-05-10T10:21:26.699Z,15.29
2023-05-10T10:23:54.108Z,14.97
2023-05-10T10:26:22.131Z,14.90
2023-05-10T10:29:17.131Z,14.55
2023-05-10T10:32:14.019Z,14.42
2023-05-10T10:34:41.595Z,15.05
2023-05-10T10:37:08.208Z,15.87
2023-05-10T10:39:37.659Z,15.22
2023-05-10T10:42:05.695Z,15.11
2023-05-10T10:44:34.384Z,15.15
2023-05-10T10:47:12.863Z,14.99
2023-05-10T10:49:49.150Z,15.11
2023-05-10T10:52:36.726Z,15.43
2023-05-10T10:55:20.435Z,15.30
2023-05-10T10:57:52.915Z,15.48
2023-05-10T11:00:22.748Z,16.66
2023-05-10T11:02:53.297Z,17.28
2023-05-10T11:05:28.751Z,18.04
2023-05-10T11:07:57.413Z,17.51
2023-05-10T11:10:25.123Z,16.83
2023-05-10T11:13:05.802Z,16.00
2023-05-10T11:15:49.204Z,15.65
2023-05-10T11:18:25.997Z,15.35
2023-05-10T11:21:00.879Z,15.23
2023-05-10T11:23:32.499Z,15.44
2023-05-10T11:26:01.054Z,16.03
2023-05-10T11:28:29.273Z,16.19
2023-05-10T11:30:56.186Z,17.03
2023-05-10T11:33:22.776Z,17.11
2023-05-10T11:35:49.423Z,16.30
2023-05-10T11:38:16.194Z,16.14
2023-05-10T11:40:43.517Z,16.03
2023-05-10T11:43:12.198Z,15.83
2023-05-10T11:45:39.221Z,15.77
2023-05-10T11:48:06.160Z,16.06
2023-05-10T11:50:33.571Z,15.81
2023-05-10T11:53:00.284Z,15.72
2023-05-10T11:55:26.984Z,16.07
2023-05-10T11:58:02.242Z,16.23
2023-05-10T12:00:29.311Z,16.97
2023-05-10T12:02:56.185Z,17.33
2023-05-10T12:05:23.233Z,17.40
2023-05-10T12:07:50.062Z,17.09
2023-05-10T12:10:19.013Z,16.99
2023-05-10T12:12:49.122Z,16.84
2023-05-10T12:15:26.035Z,18.19
2023-05-10T12:17:54.030Z,17.68
2023-05-10T12:20:22.889Z,17.68
2023-05-10T12:22:55.334Z,17.19
2023-05-10T12:25:24.128Z,17.06
2023-05-10T12:27:58.957Z,17.86
2023-05-10T12:30:28.264Z,18.58
2023-05-10T12:33:00.247Z,18.74
2023-05-10T12:35:27.036Z,19.26
2023-05-10T12:37:53.596Z,18.47
2023-05-10T12:40:20.334Z,18.70
2023-05-10T12:42:47.370Z,19.42
2023-05-10T12:45:14.606Z,19.63
2023-05-10T12:47:43.869Z,19.78
2023-05-10T12:50:11.445Z,20.03
2023-05-10T12:52:38.190Z,20.13
2023-05-10T12:55:05.438Z,20.43
2023-05-10T12:57:32.100Z,20.77
2023-05-10T12:59:58.740Z,20.15
2023-05-10T13:02:25.412Z,20.42
2023-05-10T13:04:52.131Z,20.28
2023-05-10T13:07:18.830Z,19.75
2023-05-10T13:09:45.543Z,20.01
2023-05-10T13:12:12.212Z,20.30
2023-05-10T13:14:39.128Z,20.20
2023-05-10T13:17:06.018Z,20.07
2023-05-10T13:19:32.628Z,20.73
2023-05-10T13:21:59.378Z,20.66
2023-05-10T13:24:26.221Z,21.07
2023-05-10T13:26:52.814Z,21.17
2023-05-10T13:29:20.274Z,21.53
2023-05-10T13:31:47.082Z,21.46
2023-05-10T13:34:13.754Z,20.88
2023-05-10T13:36:40.442Z,20.59
2023-05-10T13:39:07.160Z,20.37
2023-05-10T13:41:34.328Z,19.84
2023-05-10T13:44:01.068Z,19.45
2023-05-10T13:46:27.723Z,19.09
2023-05-10T13:48:54.387Z,19.18
2023-05-10T13:51:21.115Z,18.84
2023-05-10T13:53:48.226Z,18.37
2023-05-10T13:56:15.546Z,18.25
2023-05-10T13:58:42.328Z,18.09
2023-05-10T14:01:09.568Z,17.82
2023-05-10T14:03:37.540Z,17.80
2023-05-10T14:06:05.892Z,17.90
2023-05-10T14:08:32.701Z,18.06
2023-05-10T14:10:59.348Z,18.37
2023-05-10T14:13:26.031Z,18.43
2023-05-10T14:15:54.607Z,18.56
2023-05-10T14:18:21.397Z,18.36
2023-05-10T14:20:48.129Z,18.53
2023-05-10T14:23:14.825Z,19.04
2023-05-10T14:25:41.790Z,19.28
2023-05-10T14:28:08.657Z,18.86
2023-05-10T14:30:35.472Z,18.72
2023-05-10T14:33:04.008Z,18.47
2023-05-10T14:35:32.204Z,18.14
2023-05-10T14:37:59.703Z,17.88
2023-05-10T14:40:26.988Z,17.84
2023-05-10T14:42:54.067Z,17.69
2023-05-10T14:45:21.873Z,17.06
2023-05-10T14:47:49.073Z,16.96
2023-05-10T14:50:24.965Z,16.58
2023-05-10T14:53:01.656Z,16.14
2023-05-10T14:55:28.230Z,16.03
2023-05-10T14:57:55.397Z,16.02
2023-05-10T15:00:22.232Z,15.64
2023-05-10T15:02:49.546Z,15.46
2023-05-10T15:05:18.419Z,15.38
2023-05-10T15:07:46.113Z,15.38
2023-05-10T15:10:13.000Z,15.25
2023-05-10T15:12:39.630Z,15.25
2023-05-10T15:15:07.265Z,15.27
2023-05-10T15:17:34.418Z,15.27
2023-05-10T15:20:04.279Z,15.41
2023-05-10T15:22:34.353Z,15.60
2023-05-10T15:25:01.402Z,15.47
2023-05-10T15:27:28.037Z,15.50
2023-05-10T15:29:54.728Z,16.02
2023-05-10T15:32:21.324Z,16.49
2023-05-10T15:34:47.974Z,16.74
2023-05-10T15:37:14.719Z,17.19
2023-05-10T15:39:41.337Z,17.46
2023-05-10T15:42:07.960Z,17.49
2023-05-10T15:44:36.048Z,17.47
2023-05-10T15:47:03.838Z,17.45
2023-05-10T15:49:30.883Z,17.53
2023-05-10T15:51:57.669Z,17.27
2023-05-10T15:54:24.398Z,17.12
2023-05-10T15:56:51.084Z,17.08
2023-05-10T15:59:18.208Z,17.18
2023-05-10T16:01:46.324Z,17.14
2023-05-10T16:04:12.907Z,17.13
2023-05-10T16:06:40.113Z,17.42
2023-05-10T16:09:06.703Z,17.36
2023-05-10T16:11:33.409Z,17.60
2023-05-10T16:14:00.066Z,17.47
2023-05-10T16:16:26.796Z,17.09
2023-05-10T16:18:53.545Z,16.79
2023-05-10T16:21:20.221Z,16.48
2023-05-10T16:23:47.038Z,16.58
2023-05-10T16:26:14.468Z,16.55
2023-05-10T16:28:42.019Z,16.66
2023-05-10T17:24:01.842Z,15.57
2023-05-10T17:26:29.990Z,15.46
2023-05-10T17:28:56.754Z,15.14
2023-05-10T17:31:23.489Z,15.28
2023-05-10T17:33:50.117Z,15.29
2023-05-10T17:36:16.823Z,15.34
2023-05-10T17:38:43.585Z,15.46
2023-05-10T17:41:10.201Z,15.26
2023-05-10T18:59:42.245Z,12.97
2023-05-10T19:02:08.901Z,12.88
2023-05-10T19:04:35.573Z,12.85
2023-05-10T19:07:03.208Z,12.78
2023-05-10T19:09:29.965Z,12.74
2023-05-10T19:11:56.833Z,12.66
2023-05-10T19:14:24.988Z,12.59
2023-05-10T19:16:51.874Z,12.47
2023-05-10T19:19:20.126Z,12.35
2023-05-10T19:21:47.825Z,12.34
2023-05-10T19:24:14.560Z,12.32
2023-05-10T19:26:41.446Z,12.24
2023-05-10T19:29:08.393Z,12.19
2023-05-10T19:31:35.305Z,12.08
2023-05-10T19:34:04.233Z,12.08
2023-05-10T19:36:32.624Z,12.01
2023-05-10T19:38:59.255Z,11.95
2023-05-10T19:41:25.871Z,11.91
2023-05-10T19:43:53.036Z,11.87
2023-05-10T19:46:20.343Z,11.81
2023-05-10T19:48:49.197Z,11.75
2023-05-10T19:51:15.901Z,11.65
2023-05-10T19:53:44.817Z,11.53
2023-05-10T19:56:13.206Z,11.48
2023-05-10T19:58:40.810Z,11.45
2023-05-10T20:01:08.082Z,11.36
2023-05-10T20:03:36.044Z,11.37
2023-05-10T20:06:04.078Z,11.31
2023-05-10T20:08:31.096Z,11.27
2023-05-10T20:10:59.181Z,11.21
2023-05-10T20:13:26.002Z,11.09
2023-05-10T20:15:59.457Z,11.02
2023-05-10T20:18:26.719Z,10.94
2023-05-10T20:20:55.103Z,10.86
2023-05-10T20:23:22.213Z,10.82
2023-05-10T20:25:48.956Z,10.76
2023-05-10T20:28:15.929Z,10.74
2023-05-10T20:30:42.544Z,10.71
2023-05-10T20:33:09.428Z,10.67
2023-05-10T20:35:36.567Z,10.63
2023-05-10T20:38:04.076Z,10.57
2023-05-10T20:40:31.885Z,10.50
2023-05-10T20:42:58.495Z,10.51
2023-05-10T20:45:25.376Z,10.50
2023-05-10T20:47:52.127Z,10.47
2023-05-10T20:50:18.938Z,10.42
2023-05-10T20:52:45.734Z,10.44
2023-05-10T20:55:12.843Z,10.40
2023-05-10T20:57:39.455Z,10.34
2023-05-10T21:00:06.873Z,10.35
2023-05-10T21:02:33.609Z,10.33
2023-05-10T21:05:00.558Z,10.32
2023-05-10T21:07:28.094Z,10.31
2023-05-10T21:09:54.759Z,10.24
2023-05-10T21:12:22.593Z,10.26
2023-05-10T21:14:49.535Z,10.20
2023-05-10T21:17:19.458Z,10.16
2023-05-10T21:19:46.998Z,10.02
2023-05-10T21:22:14.018Z,9.96
2023-05-10T21:24:40.987Z,9.92
2023-05-10T21:27:09.186Z,9.88
2023-05-10T21:29:35.816Z,9.81
2023-05-10T21:32:02.561Z,9.77
2023-05-10T21:34:31.468Z,9.73
2023-05-10T21:36:58.062Z,9.64
2023-05-10T21:39:24.650Z,9.50
2023-05-10T21:41:51.296Z,9.37
2023-05-10T21:44:17.899Z,9.35
2023-05-10T21:46:44.538Z,9.38
2023-05-10T21:49:11.250Z,9.38
2023-05-10T21:51:37.829Z,9.31
2023-05-10T21:54:04.636Z,9.32
2023-05-10T21:56:31.242Z,9.31
2023-05-10T21:58:58.035Z,9.22
2023-05-10T22:01:25.043Z,9.18
2023-05-10T22:03:51.639Z,9.06
2023-05-10T22:06:18.280Z,9.03
2023-05-10T22:08:44.935Z,9.01
2023-05-10T22:11:11.506Z,9.03
2023-05-10T22:13:38.049Z,9.02
2023-05-10T22:16:05.148Z,8.98
2023-05-10T22:18:32.211Z,8.90
2023-05-10T22:20:58.908Z,8.90
2023-05-10T22:23:25.573Z,8.91
2023-05-10T22:25:52.676Z,8.93
2023-05-10T22:28:19.569Z,8.92
2023-05-10T22:30:46.231Z,8.88
2023-05-10T22:33:12.844Z,8.90
2023-05-10T22:35:39.378Z,8.88
2023-05-10T22:38:06.345Z,8.86
2023-05-10T22:40:33.119Z,8.81
2023-05-10T22:43:08.907Z,8.75
2023-05-10T22:45:35.472Z,8.73
2023-05-10T22:48:05.079Z,8.68
2023-05-10T22:50:31.938Z,8.67
2023-05-10T22:52:59.398Z,8.66
2023-05-10T22:55:26.327Z,8.65
2023-05-10T22:57:53.422Z,8.61
2023-05-10T23:00:20.429Z,8.59
2023-05-10T23:02:47.238Z,8.55
2023-05-10T23:05:14.006Z,8.52
2023-05-10T23:07:40.652Z,8.47
2023-05-10T23:10:08.156Z,8.44
2023-05-10T23:12:34.940Z,8.42
2023-05-10T23:15:01.746Z,8.42
2023-05-10T23:17:28.570Z,8.45
2023-05-10T23:19:55.648Z,8.47
2023-05-10T23:22:22.160Z,8.48
2023-05-10T23:24:50.158Z,8.49
2023-05-10T23:27:16.773Z,8.54
2023-05-10T23:29:43.334Z,8.60
2023-05-10T23:32:09.945Z,8.62
2023-05-10T23:34:36.843Z,8.67
2023-05-10T23:37:03.820Z,8.65
2023-05-10T23:39:31.899Z,8.66
2023-05-10T23:41:58.513Z,8.66
2023-05-10T23:44:25.089Z,8.63
2023-05-10T23:46:51.831Z,8.59
2023-05-10T23:49:18.633Z,8.54
2023-05-10T23:51:45.196Z,8.58
2023-05-10T23:54:12.273Z,8.57
2023-05-10T23:56:38.902Z,8.57
2023-05-10T23:59:06.163Z,8.50
